createdAt,value
2019-01-29T00:00:57.120Z,1.12
2019-01-29T00:03:23.064Z,1.08
2019-01-29T00:05:48.883Z,1.05
2019-01-29T00:08:14.801Z,0.99
2019-01-29T00:10:43.420Z,0.96
2019-01-29T00:13:09.652Z,0.98
2019-01-29T00:15:38.260Z,0.94
2019-01-29T00:18:04.397Z,0.90
2019-01-29T00:20:33.480Z,0.89
2019-01-29T00:22:59.301Z,0.89
2019-01-29T00:25:25.234Z,0.88
2019-01-29T00:27:51.199Z,0.86
2019-01-29T00:30:17.166Z,0.87
2019-01-29T00:32:45.878Z,0.83
2019-01-29T00:35:11.798Z,0.82
2019-01-29T00:37:40.899Z,0.87
2019-01-29T00:40:11.480Z,0.81
2019-01-29T00:42:37.410Z,0.76
2019-01-29T00:45:06.260Z,0.71
2019-01-29T00:47:32.130Z,0.69
2019-01-29T00:49:58.086Z,0.69
2019-01-29T00:52:24.168Z,0.66
2019-01-29T00:54:50.370Z,0.66
2019-01-29T00:57:19.506Z,0.66
2019-01-29T00:59:45.343Z,0.60
2019-01-29T01:02:11.139Z,0.59
2019-01-29T01:04:36.975Z,0.60
2019-01-29T01:07:03.126Z,0.38
2019-01-29T01:09:29.086Z,0.54
2019-01-29T01:11:55.199Z,0.54
2019-01-29T01:14:23.880Z,0.49
2019-01-29T01:16:49.728Z,0.49
2019-01-29T01:19:18.270Z,0.51
2019-01-29T01:21:44.086Z,0.58
2019-01-29T01:24:13.806Z,0.58
2019-01-29T01:26:39.956Z,0.60
2019-01-29T01:29:08.845Z,0.65
2019-01-29T01:31:34.678Z,0.65
2019-01-29T01:34:03.537Z,0.65
2019-01-29T01:36:29.354Z,0.66
2019-01-29T01:38:55.206Z,0.65
2019-01-29T01:41:21.032Z,0.61
2019-01-29T01:43:46.974Z,0.65
2019-01-29T01:46:14.105Z,0.72
2019-01-29T01:48:39.957Z,0.72
2019-01-29T01:51:10.511Z,0.75
2019-01-29T01:53:36.358Z,0.81
2019-01-29T01:56:03.832Z,0.86
2019-01-29T01:58:29.894Z,0.93
2019-01-29T02:00:58.956Z,0.92
2019-01-29T02:03:24.797Z,0.89
2019-01-29T02:05:53.938Z,0.82
2019-01-29T02:08:19.767Z,0.82
2019-01-29T02:10:48.374Z,0.83
2019-01-29T02:13:14.189Z,0.85
2019-01-29T02:15:40.051Z,0.81
2019-01-29T02:18:05.958Z,0.85
2019-01-29T02:20:31.880Z,0.87
2019-01-29T02:23:07.795Z,0.93
2019-01-29T02:25:28.253Z,0.92
2019-01-29T02:27:54.196Z,0.89
2019-01-29T02:30:22.127Z,0.95
2019-01-29T02:32:50.834Z,0.93
2019-01-29T02:35:16.752Z,0.84
2019-01-29T02:37:45.421Z,0.87
2019-01-29T02:40:14.771Z,0.90
2019-01-29T02:42:40.729Z,0.87
2019-01-29T02:45:10.305Z,0.92
2019-01-29T02:47:36.418Z,0.97
2019-01-29T02:50:04.531Z,0.97
2019-01-29T02:52:30.375Z,1.02
2019-01-29T02:54:56.175Z,0.98
2019-01-29T02:57:21.988Z,1.03
2019-01-29T02:59:47.824Z,0.99
2019-01-29T03:02:13.931Z,1.00
2019-01-29T03:04:39.753Z,1.01
2019-01-29T03:07:05.592Z,0.97
2019-01-29T03:09:36.114Z,1.03
2019-01-29T03:12:01.975Z,1.02
2019-01-29T03:14:30.893Z,1.02
2019-01-29T03:16:57.110Z,0.88
2019-01-29T03:19:26.014Z,0.81
2019-01-29T03:21:51.870Z,0.81
2019-01-29T03:24:20.995Z,0.83
2019-01-29T03:26:46.834Z,0.82
2019-01-29T03:29:12.691Z,0.82
2019-01-29T03:31:38.509Z,0.80
2019-01-29T03:34:04.335Z,0.75
2019-01-29T03:36:30.207Z,0.69
2019-01-29T03:38:56.267Z,0.60
2019-01-29T03:41:26.741Z,0.60
2019-01-29T03:43:52.679Z,0.64
2019-01-29T03:46:21.553Z,0.64
2019-01-29T03:48:47.383Z,0.71
2019-01-29T03:51:16.290Z,0.65
2019-01-29T03:53:42.138Z,0.62
2019-01-29T03:56:10.965Z,0.60
2019-01-29T03:58:37.109Z,0.61
2019-01-29T04:01:06.017Z,0.65
2019-01-29T04:03:31.817Z,0.64
2019-01-29T04:05:57.676Z,0.64
2019-01-29T04:08:23.501Z,0.62
2019-01-29T04:10:49.351Z,0.61
2019-01-29T04:13:15.194Z,0.56
2019-01-29T04:15:41.301Z,0.56
2019-01-29T04:18:29.037Z,0.53
2019-01-29T04:20:54.902Z,0.56
2019-01-29T04:23:20.723Z,0.51
2019-01-29T04:25:48.470Z,0.53
2019-01-29T04:28:14.286Z,0.54
2019-01-29T04:30:40.135Z,0.53
2019-01-29T04:33:06.353Z,0.52
2019-01-29T04:35:32.170Z,0.50
2019-01-29T04:37:58.310Z,0.48
2019-01-29T04:40:24.121Z,0.47
2019-01-29T04:42:50.006Z,0.45
2019-01-29T04:45:16.469Z,0.44
2019-01-29T04:47:42.355Z,0.44
2019-01-29T04:50:11.415Z,0.45
2019-01-29T04:52:37.225Z,0.45
2019-01-29T04:55:05.986Z,0.41
2019-01-29T04:57:31.809Z,0.43
2019-01-29T04:59:57.668Z,0.44
2019-01-29T05:02:24.341Z,0.51
2019-01-29T05:04:50.174Z,0.50
2019-01-29T05:07:16.001Z,0.49
2019-01-29T05:09:42.128Z,0.48
2019-01-29T05:12:08.231Z,0.49
2019-01-29T05:14:34.062Z,0.61
2019-01-29T05:17:00.209Z,0.61
2019-01-29T05:19:26.070Z,0.60
2019-01-29T05:21:51.882Z,0.60
2019-01-29T05:24:17.716Z,0.65
2019-01-29T05:26:45.854Z,0.65
2019-01-29T05:29:11.658Z,0.64
2019-01-29T05:31:40.733Z,0.63
2019-01-29T05:34:06.824Z,0.65
2019-01-29T05:36:37.482Z,0.65
2019-01-29T05:39:06.321Z,0.68
2019-01-29T05:41:32.439Z,0.62
2019-01-29T05:43:58.568Z,0.69
2019-01-29T05:46:27.218Z,0.72
2019-01-29T05:48:53.087Z,0.78
2019-01-29T05:51:21.937Z,0.78
2019-01-29T05:53:48.518Z,0.85
2019-01-29T05:56:14.604Z,0.87
2019-01-29T05:58:40.463Z,0.94
2019-01-29T06:01:06.272Z,0.93
2019-01-29T06:03:32.351Z,0.94
2019-01-29T06:05:58.219Z,0.90
2019-01-29T06:08:27.112Z,0.94
2019-01-29T06:10:52.941Z,0.96
2019-01-29T06:13:21.832Z,0.98
2019-01-29T06:15:47.941Z,1.02
2019-01-29T06:18:16.963Z,1.06
2019-01-29T06:20:43.069Z,1.07
2019-01-29T06:23:10.961Z,1.07
2019-01-29T06:25:39.235Z,1.06
2019-01-29T06:28:05.208Z,1.10
2019-01-29T06:30:31.326Z,1.10
2019-01-29T06:32:57.205Z,1.07
2019-01-29T06:35:23.399Z,1.11
2019-01-29T06:37:49.254Z,1.17
2019-01-29T06:40:24.699Z,1.18
2019-01-29T06:42:51.222Z,1.23
2019-01-29T06:45:19.492Z,1.15
2019-01-29T06:47:45.651Z,1.15
2019-01-29T06:50:16.802Z,1.07
2019-01-29T06:52:43.103Z,1.06
2019-01-29T06:55:12.866Z,0.94
2019-01-29T06:57:38.796Z,0.85
2019-01-29T07:00:08.440Z,0.85
2019-01-29T07:02:34.268Z,0.89
2019-01-29T07:05:00.270Z,0.88
2019-01-29T07:07:26.194Z,0.87
2019-01-29T07:09:52.327Z,0.87
2019-01-29T07:12:18.170Z,0.89
2019-01-29T07:14:43.967Z,0.92
2019-01-29T07:17:11.704Z,1.02
2019-01-29T07:19:37.554Z,1.08
2019-01-29T07:22:03.597Z,1.08
2019-01-29T07:24:29.416Z,1.08
2019-01-29T07:26:55.521Z,1.08
2019-01-29T07:29:21.385Z,1.09
2019-01-29T07:31:47.472Z,1.09
2019-01-29T07:34:13.320Z,1.15
2019-01-29T07:36:42.214Z,1.21
2019-01-29T07:39:08.248Z,1.27
2019-01-29T07:41:37.424Z,1.27
2019-01-29T07:44:03.561Z,1.35
2019-01-29T07:46:29.662Z,1.38
2019-01-29T07:48:55.487Z,1.32
2019-01-29T07:51:21.335Z,1.33
2019-01-29T07:53:47.167Z,1.41
2019-01-29T07:56:13.009Z,1.43
2019-01-29T07:58:43.693Z,1.50
2019-01-29T08:01:09.548Z,1.54
2019-01-29T08:03:38.307Z,1.53
2019-01-29T08:06:04.392Z,1.59
2019-01-29T08:08:33.022Z,1.67
2019-01-29T08:10:59.104Z,1.68
2019-01-29T08:13:28.037Z,2.60
2019-01-29T08:15:53.947Z,3.15
2019-01-29T08:18:22.910Z,2.97
2019-01-29T08:20:48.729Z,2.49
2019-01-29T08:23:14.539Z,2.13
2019-01-29T08:25:47.640Z,1.90
2019-01-29T08:28:08.240Z,1.63
2019-01-29T08:30:34.061Z,1.49
2019-01-29T08:32:59.876Z,1.38
2019-01-29T08:35:28.977Z,1.35
2019-01-29T08:37:55.097Z,1.33
2019-01-29T08:40:23.980Z,1.34
2019-01-29T08:42:49.936Z,1.31
2019-01-29T08:45:18.193Z,1.36
2019-01-29T08:47:44.242Z,1.44
2019-01-29T08:50:15.298Z,1.44
2019-01-29T08:52:41.403Z,1.42
2019-01-29T08:55:10.838Z,1.42
2019-01-29T08:57:35.183Z,1.51
2019-01-29T09:00:01.132Z,1.59
2019-01-29T09:02:26.930Z,1.73
2019-01-29T09:04:52.764Z,1.93
2019-01-29T09:07:18.612Z,2.12
2019-01-29T09:09:44.414Z,2.27
2019-01-29T09:12:13.488Z,2.40
2019-01-29T09:14:39.290Z,2.49
2019-01-29T09:17:08.190Z,2.49
2019-01-29T09:19:33.999Z,2.49
2019-01-29T09:22:03.428Z,2.27
2019-01-29T09:24:29.271Z,2.57
2019-01-29T09:26:57.827Z,2.57
2019-01-29T09:29:23.666Z,2.77
2019-01-29T09:31:52.245Z,3.18
2019-01-29T09:34:18.078Z,3.73
2019-01-29T09:36:43.995Z,4.71
2019-01-29T09:39:10.052Z,5.40
2019-01-29T09:41:35.867Z,5.45
2019-01-29T09:44:04.820Z,5.86
2019-01-29T09:46:31.008Z,6.43
2019-01-29T09:49:00.132Z,6.01
2019-01-29T09:51:25.969Z,5.31
2019-01-29T09:53:55.019Z,5.13
2019-01-29T09:56:20.837Z,7.11
2019-01-29T09:58:49.611Z,8.69
2019-01-29T10:01:15.411Z,8.99
2019-01-29T10:03:44.022Z,8.97
2019-01-29T10:06:10.030Z,9.21
2019-01-29T10:08:38.897Z,9.61
2019-01-29T10:11:14.104Z,10.14
2019-01-29T10:13:39.400Z,9.93
2019-01-29T10:16:05.213Z,10.21
2019-01-29T10:18:31.029Z,10.27
2019-01-29T10:20:56.859Z,10.34
2019-01-29T10:23:22.701Z,10.44
2019-01-29T10:25:48.542Z,10.41
2019-01-29T10:28:14.349Z,10.19
2019-01-29T10:30:40.175Z,10.24
2019-01-29T10:33:06.500Z,10.49
2019-01-29T10:35:35.646Z,10.26
2019-01-29T10:38:01.740Z,10.76
2019-01-29T10:40:27.868Z,11.03
2019-01-29T10:42:54.871Z,11.06
2019-01-29T10:45:23.668Z,11.16
2019-01-29T10:47:49.756Z,11.39
2019-01-29T10:50:18.316Z,11.14
2019-01-29T10:52:44.473Z,11.62
2019-01-29T10:55:10.488Z,11.39
2019-01-29T10:57:36.333Z,10.98
2019-01-29T11:00:05.967Z,10.40
2019-01-29T11:02:31.799Z,8.47
2019-01-29T11:04:57.650Z,7.38
2019-01-29T11:07:23.465Z,7.38
2019-01-29T11:09:49.275Z,7.52
2019-01-29T11:12:19.934Z,8.74
2019-01-29T11:14:45.765Z,9.57
2019-01-29T11:17:14.745Z,10.81
2019-01-29T11:19:40.597Z,11.23
2019-01-29T11:22:09.450Z,11.21
2019-01-29T11:24:35.377Z,11.55
2019-01-29T11:27:01.226Z,10.18
2019-01-29T11:29:27.301Z,8.87
2019-01-29T11:31:53.428Z,7.53
2019-01-29T11:34:19.550Z,6.76
2019-01-29T11:36:45.389Z,6.37
2019-01-29T11:39:14.656Z,5.99
2019-01-29T11:41:40.585Z,5.78
2019-01-29T11:44:09.277Z,5.48
2019-01-29T11:46:35.112Z,4.92
2019-01-29T11:49:04.140Z,4.46
2019-01-29T11:51:30.054Z,4.30
2019-01-29T11:53:58.977Z,4.11
2019-01-29T11:56:24.798Z,3.76
2019-01-29T11:58:53.809Z,3.48
2019-01-29T12:01:20.706Z,3.41
2019-01-29T12:03:47.026Z,3.16
2019-01-29T12:06:12.857Z,3.18
2019-01-29T12:08:38.691Z,3.32
2019-01-29T12:11:05.011Z,3.22
2019-01-29T12:13:30.824Z,3.14
2019-01-29T12:16:00.753Z,2.97
2019-01-29T12:18:26.611Z,2.87
2019-01-29T12:20:55.457Z,3.01
2019-01-29T12:23:21.574Z,2.91
2019-01-29T12:25:50.451Z,2.90
2019-01-29T12:28:16.272Z,3.05
2019-01-29T12:30:43.318Z,3.21
2019-01-29T12:33:09.509Z,3.07
2019-01-29T12:35:40.396Z,3.13
2019-01-29T12:38:06.325Z,3.21
2019-01-29T12:40:32.262Z,3.41
2019-01-29T12:42:58.377Z,3.65
2019-01-29T12:45:24.403Z,3.87
2019-01-29T12:47:50.565Z,3.74
2019-01-29T12:50:19.786Z,3.79
2019-01-29T12:52:50.705Z,3.81
2019-01-29T12:55:16.538Z,3.79
2019-01-29T12:57:42.635Z,3.80
2019-01-29T13:00:12.291Z,3.80
2019-01-29T13:02:38.146Z,3.84
2019-01-29T13:05:07.666Z,3.76
2019-01-29T13:07:33.509Z,3.79
2019-01-29T13:09:59.613Z,3.79
2019-01-29T13:12:25.736Z,3.84
2019-01-29T13:14:51.845Z,3.79
2019-01-29T13:17:17.669Z,3.64
2019-01-29T13:19:43.801Z,3.42
2019-01-29T13:22:09.756Z,3.44
2019-01-29T13:24:35.598Z,3.53
2019-01-29T13:27:01.462Z,3.53
2019-01-29T13:29:30.483Z,3.73
2019-01-29T13:31:56.313Z,3.84
2019-01-29T13:34:25.243Z,3.93
2019-01-29T13:36:51.160Z,3.92
2019-01-29T13:39:20.273Z,4.00
2019-01-29T13:41:46.329Z,3.92
2019-01-29T13:44:15.227Z,3.79
2019-01-29T13:46:41.486Z,1.95
2019-01-29T13:49:10.025Z,3.72
2019-01-29T13:51:35.846Z,3.76
2019-01-29T13:54:01.756Z,3.74
2019-01-29T13:56:27.608Z,3.57
2019-01-29T13:58:53.404Z,3.45
2019-01-29T14:01:20.922Z,3.45
2019-01-29T14:03:46.723Z,3.50
2019-01-29T14:06:15.215Z,3.45
2019-01-29T14:08:41.071Z,3.45
2019-01-29T14:11:12.047Z,3.39
2019-01-29T14:13:37.866Z,3.45
2019-01-29T14:16:07.229Z,3.67
2019-01-29T14:18:33.351Z,3.53
2019-01-29T14:20:59.224Z,3.54
2019-01-29T14:23:25.037Z,3.51
2019-01-29T14:25:55.890Z,3.62
2019-01-29T14:28:21.687Z,3.56
2019-01-29T14:30:47.652Z,3.75
2019-01-29T14:33:13.680Z,3.97
2019-01-29T14:35:39.628Z,3.90
2019-01-29T14:38:15.359Z,3.73
2019-01-29T14:40:41.209Z,3.83
2019-01-29T14:43:10.407Z,3.88
2019-01-29T14:45:36.254Z,3.87
2019-01-29T14:48:02.477Z,3.90
2019-01-29T14:50:29.021Z,3.97
2019-01-29T14:52:54.929Z,3.90
2019-01-29T14:55:21.252Z,3.76
2019-01-29T14:57:47.078Z,3.84
2019-01-29T15:00:19.472Z,4.09
2019-01-29T15:02:45.577Z,4.41
2019-01-29T15:05:11.533Z,4.21
2019-01-29T15:07:37.407Z,3.94
2019-01-29T15:10:07.299Z,3.94
2019-01-29T15:12:33.159Z,4.25
2019-01-29T15:14:58.966Z,4.40
2019-01-29T15:17:26.973Z,4.40
2019-01-29T15:19:53.074Z,4.18
2019-01-29T15:22:19.220Z,4.39
2019-01-29T15:24:45.027Z,4.49
2019-01-29T15:27:11.135Z,4.20
2019-01-29T15:29:36.934Z,4.42
2019-01-29T15:32:02.987Z,4.16
2019-01-29T15:34:30.231Z,4.10
2019-01-29T15:36:56.101Z,4.01
2019-01-29T15:39:25.321Z,4.03
2019-01-29T15:41:51.416Z,3.81
2019-01-29T15:44:17.568Z,3.57
2019-01-29T15:46:43.388Z,3.57
2019-01-29T15:49:09.233Z,3.42
2019-01-29T15:51:37.959Z,3.20
2019-01-29T15:54:04.525Z,2.90
2019-01-29T15:56:31.690Z,2.62
2019-01-29T15:58:57.533Z,2.39
2019-01-29T16:01:26.655Z,2.22
2019-01-29T16:03:52.490Z,2.24
2019-01-29T16:06:20.743Z,2.35
2019-01-29T16:08:47.215Z,2.36
2019-01-29T16:11:15.245Z,2.21
2019-01-29T16:13:41.051Z,2.18
2019-01-29T16:16:09.901Z,2.18
2019-01-29T16:18:35.839Z,2.26
2019-01-29T16:21:01.810Z,2.24
2019-01-29T16:23:27.897Z,2.25
2019-01-29T16:25:53.761Z,2.27
2019-01-29T16:28:22.994Z,2.28
2019-01-29T16:30:48.886Z,2.29
2019-01-29T16:33:17.737Z,2.25
2019-01-29T16:35:43.597Z,2.28
2019-01-29T16:38:12.271Z,2.24
2019-01-29T16:40:40.476Z,2.13
2019-01-29T16:43:06.466Z,2.04
2019-01-29T16:45:35.108Z,2.04
2019-01-29T16:48:01.484Z,2.03
2019-01-29T16:50:27.620Z,1.92
2019-01-29T16:52:56.535Z,1.93
2019-01-29T16:55:22.549Z,1.90
2019-01-29T16:57:48.585Z,1.90
2019-01-29T17:00:22.870Z,1.86
2019-01-29T17:02:48.975Z,1.89
2019-01-29T17:05:15.068Z,1.84
2019-01-29T17:07:41.337Z,1.77
2019-01-29T17:10:10.867Z,1.73
2019-01-29T17:12:36.706Z,1.69
2019-01-29T17:15:06.528Z,1.66
2019-01-29T17:17:32.369Z,1.62
2019-01-29T17:19:58.191Z,1.60
2019-01-29T17:22:24.022Z,1.48
2019-01-29T17:24:50.116Z,1.29
2019-01-29T17:27:16.010Z,1.17
2019-01-29T17:29:41.848Z,1.19
2019-01-29T17:32:07.674Z,1.22
2019-01-29T17:34:33.512Z,1.13
2019-01-29T17:36:59.347Z,1.16
2019-01-29T17:39:25.449Z,1.09
2019-01-29T17:41:54.066Z,1.07
2019-01-29T17:44:19.913Z,0.95
2019-01-29T17:46:47.040Z,0.83
2019-01-29T17:49:12.853Z,0.68
2019-01-29T17:51:42.064Z,0.56
2019-01-29T17:54:08.155Z,0.40
2019-01-29T17:56:36.814Z,0.31
2019-01-29T17:59:02.920Z,0.25
2019-01-29T18:01:31.754Z,0.21
2019-01-29T18:03:57.656Z,0.14
2019-01-29T18:06:26.317Z,0.23
2019-01-29T18:08:52.176Z,0.30
2019-01-29T18:11:17.997Z,0.38
2019-01-29T18:13:44.097Z,0.33
2019-01-29T18:16:09.996Z,0.29
2019-01-29T18:18:38.597Z,0.38
2019-01-29T18:21:04.533Z,0.37
2019-01-29T18:23:33.617Z,0.40
2019-01-29T18:25:59.452Z,0.46
2019-01-29T18:28:28.126Z,0.47
2019-01-29T18:30:53.981Z,0.53
2019-01-29T18:33:22.726Z,0.50
2019-01-29T18:35:48.848Z,0.51
2019-01-29T18:38:17.718Z,0.51
2019-01-29T18:40:47.373Z,0.48
2019-01-29T18:43:13.209Z,0.48
2019-01-29T18:45:39.367Z,0.40
2019-01-29T18:48:05.355Z,0.27
2019-01-29T18:50:31.174Z,0.14
2019-01-29T18:52:56.972Z,0.03
2019-01-29T18:55:22.815Z,-0.06
2019-01-29T18:57:48.655Z,-0.09
2019-01-29T19:00:20.599Z,-0.12
2019-01-29T19:02:46.737Z,-0.08
2019-01-29T19:05:14.617Z,-0.09
2019-01-29T19:07:40.543Z,-0.31
2019-01-29T19:10:31.235Z,-0.14
2019-01-29T19:12:57.087Z,-0.18
2019-01-29T19:15:24.590Z,-0.22
2019-01-29T19:17:50.521Z,-0.26
2019-01-29T19:20:19.342Z,-0.23
2019-01-29T19:22:45.198Z,-0.27
2019-01-29T19:25:13.460Z,-0.28
2019-01-29T19:27:39.622Z,-0.26
2019-01-29T19:30:09.254Z,-0.28
2019-01-29T19:32:35.099Z,-0.34
2019-01-29T19:35:00.906Z,-0.31
2019-01-29T19:37:26.744Z,-0.31
2019-01-29T19:39:52.831Z,-0.35
2019-01-29T19:42:27.399Z,-0.37
2019-01-29T19:44:47.000Z,-0.39
2019-01-29T19:47:12.843Z,-0.34
2019-01-29T19:49:38.637Z,-0.48
2019-01-29T19:52:04.900Z,-0.32
2019-01-29T19:54:30.725Z,-0.32
2019-01-29T19:56:56.838Z,-0.35
2019-01-29T19:59:22.697Z,-0.39
2019-01-29T20:01:48.700Z,-0.47
2019-01-29T20:04:14.560Z,-0.44
2019-01-29T20:06:40.648Z,-0.46
2019-01-29T20:09:08.744Z,-0.48
2019-01-29T20:11:34.797Z,-0.52
2019-01-29T20:14:00.902Z,-0.52
2019-01-29T20:16:26.730Z,-0.54
2019-01-29T20:18:52.584Z,-0.52
2019-01-29T20:21:18.393Z,-0.54
2019-01-29T20:23:44.230Z,-0.53
2019-01-29T20:26:10.054Z,-0.55
2019-01-29T20:28:42.201Z,-0.51
2019-01-29T20:31:04.221Z,-0.51
2019-01-29T20:33:30.373Z,-0.51
2019-01-29T20:35:56.218Z,-0.50
2019-01-29T20:38:22.060Z,-0.56
2019-01-29T20:40:47.873Z,-0.57
2019-01-29T20:43:13.965Z,-0.58
2019-01-29T20:45:39.799Z,-0.58
2019-01-29T20:48:05.648Z,-0.62
2019-01-29T20:50:35.382Z,-0.64
2019-01-29T20:53:01.409Z,-0.66
2019-01-29T20:55:30.401Z,-0.64
2019-01-29T20:57:56.223Z,-0.69
2019-01-29T21:00:30.453Z,-0.70
2019-01-29T21:02:56.546Z,-0.72
2019-01-29T21:05:22.586Z,-0.71
2019-01-29T21:07:48.657Z,-0.73
2019-01-29T21:10:16.795Z,-0.74
2019-01-29T21:12:43.005Z,-0.80
2019-01-29T21:15:12.405Z,-0.76
2019-01-29T21:17:38.241Z,-0.73
2019-01-29T21:20:07.866Z,-0.77
2019-01-29T21:22:35.173Z,-0.79
2019-01-29T21:25:00.961Z,-0.79
2019-01-29T21:27:26.819Z,-0.79
2019-01-29T21:29:52.952Z,-0.78
2019-01-29T21:32:18.775Z,-0.73
2019-01-29T21:34:44.578Z,-0.68
2019-01-29T21:37:10.424Z,-0.68
2019-01-29T21:39:36.224Z,-0.68
2019-01-29T21:42:05.077Z,-0.69
2019-01-29T21:44:30.940Z,-0.75
2019-01-29T21:46:59.829Z,-0.79
2019-01-29T21:49:25.897Z,-0.85
2019-01-29T21:51:52.038Z,-0.89
2019-01-29T21:54:17.848Z,-0.90
2019-01-29T21:56:43.645Z,-0.95
2019-01-29T21:59:13.372Z,-0.95
2019-01-29T22:01:37.702Z,-0.89
2019-01-29T22:04:06.347Z,-0.94
2019-01-29T22:06:32.450Z,-0.99
2019-01-29T22:09:01.779Z,-0.96
2019-01-29T22:11:27.592Z,-1.02
2019-01-29T22:13:53.536Z,-0.96
2019-01-29T22:16:19.809Z,-1.00
2019-01-29T22:18:50.567Z,-1.05
2019-01-29T22:21:16.432Z,-1.06
2019-01-29T22:23:45.249Z,-1.13
2019-01-29T22:26:11.054Z,-1.17
2019-01-29T22:28:37.187Z,-1.25
2019-01-29T22:31:03.476Z,-1.13
2019-01-29T22:33:29.575Z,-1.49
2019-01-29T22:35:55.432Z,-1.16
2019-01-29T22:38:21.557Z,-1.21
2019-01-29T22:40:50.412Z,-1.25
2019-01-29T22:43:16.255Z,-1.22
2019-01-29T22:45:45.196Z,-1.22
2019-01-29T22:48:11.067Z,-1.22
2019-01-29T22:50:40.142Z,-1.22
2019-01-29T22:53:06.674Z,-1.26
2019-01-29T22:55:33.912Z,-1.22
2019-01-29T22:58:00.210Z,-1.26
2019-01-29T23:00:52.465Z,-1.19
2019-01-29T23:03:20.577Z,-1.34
2019-01-29T23:05:50.231Z,-1.37
2019-01-29T23:08:16.300Z,-1.41
2019-01-29T23:10:42.092Z,-1.46
2019-01-29T23:13:08.056Z,-1.40
2019-01-29T23:15:33.879Z,-1.35
2019-01-29T23:17:59.729Z,-1.38
2019-01-29T23:20:25.757Z,-1.37
2019-01-29T23:22:51.701Z,-1.40
2019-01-29T23:25:17.764Z,-1.30
2019-01-29T23:27:43.602Z,-1.38
2019-01-29T23:30:13.249Z,-1.37
2019-01-29T23:32:39.100Z,-1.35
2019-01-29T23:35:06.038Z,-1.38
2019-01-29T23:37:31.854Z,-1.39
2019-01-29T23:39:57.691Z,-1.50
2019-01-29T23:42:23.529Z,-1.57
2019-01-29T23:44:49.337Z,-1.58
2019-01-29T23:47:15.191Z,-1.58
2019-01-29T23:49:41.019Z,-1.60
2019-01-29T23:52:06.978Z,-1.74
2019-01-29T23:54:32.790Z,-1.76
2019-01-29T23:56:58.646Z,-1.77
2019-01-29T23:59:24.705Z,-1.83
